createdAt,value
2017-06-05T00:00:06.374Z,61.6
2017-06-05T00:10:06.404Z,61.1
2017-06-05T00:20:06.413Z,61.6
2017-06-05T00:30:06.403Z,61.6
2017-06-05T00:40:06.399Z,60.5
2017-06-05T00:50:03.005Z,60.5
2017-06-05T01:00:06.412Z,61.6
2017-06-05T01:10:06.429Z,61.6
2017-06-05T01:20:06.367Z,61.6
2017-06-05T01:30:06.397Z,60.5
2017-06-05T01:40:06.377Z,61.1
2017-06-05T01:50:06.428Z,60.5
2017-06-05T02:00:06.375Z,60.5
2017-06-05T02:10:06.407Z,60.5
2017-06-05T02:20:06.429Z,60.5
2017-06-05T02:30:06.423Z,60
2017-06-05T02:40:06.448Z,60
2017-06-05T02:50:06.366Z,60.5
2017-06-05T03:00:06.401Z,60
2017-06-05T03:10:06.411Z,60.5
2017-06-05T03:20:01.216Z,60
2017-06-05T03:30:06.414Z,59.5
2017-06-05T03:40:16.379Z,60
2017-06-05T03:50:16.399Z,60
2017-06-05T04:00:16.422Z,59.5
2017-06-05T04:10:06.400Z,59.5
2017-06-05T04:20:06.409Z,59.5
2017-06-05T04:30:06.404Z,60
2017-06-05T04:40:06.373Z,60
2017-06-05T04:50:06.419Z,59.5
2017-06-05T05:00:06.370Z,59.5
2017-06-05T05:10:06.402Z,60
2017-06-05T05:20:06.366Z,59.5
2017-06-05T05:30:06.401Z,60
2017-06-05T05:40:06.371Z,60
2017-06-05T05:50:06.408Z,60
2017-06-05T06:00:06.421Z,60
2017-06-05T06:10:06.397Z,60
2017-06-05T06:20:06.411Z,60
2017-06-05T06:30:06.404Z,60
2017-06-05T06:40:06.409Z,60
2017-06-05T06:50:06.406Z,60.5
2017-06-05T07:00:06.371Z,60
2017-06-05T07:10:06.402Z,60.5
2017-06-05T07:20:06.371Z,60.5
2017-06-05T07:30:06.397Z,60
2017-06-05T07:40:06.366Z,60.5
2017-06-05T07:50:06.398Z,60.5
2017-06-05T08:00:06.405Z,60.5
2017-06-05T08:10:06.404Z,60.5
2017-06-05T08:20:06.367Z,60.5
2017-06-05T08:30:02.333Z,60.5
2017-06-05T08:40:06.403Z,61.1
2017-06-05T08:50:06.408Z,61.6
2017-06-05T09:00:06.405Z,61.6
2017-06-05T09:10:06.414Z,62.1
2017-06-05T09:20:06.374Z,62.1
2017-06-05T09:30:06.417Z,61.6
2017-06-05T09:40:06.434Z,61.6
2017-06-05T09:50:06.407Z,62.1
2017-06-05T10:00:06.375Z,61.6
2017-06-05T10:10:06.457Z,62.1
2017-06-05T10:20:06.413Z,62.7
2017-06-05T10:30:06.439Z,62.7
2017-06-05T10:40:06.371Z,62.7
2017-06-05T10:50:06.405Z,62.7
2017-06-05T11:00:06.402Z,63.8
2017-06-05T11:10:06.423Z,62.7
2017-06-05T11:20:06.403Z,62.7
2017-06-05T11:30:06.415Z,63.2
2017-06-05T11:40:06.371Z,62.7
2017-06-05T11:50:06.429Z,63.8
2017-06-05T12:00:06.414Z,63.8
2017-06-05T12:10:06.443Z,63.8
2017-06-05T12:20:06.444Z,62.7
2017-06-05T12:30:06.487Z,63.8
2017-06-05T12:40:06.424Z,63.8
2017-06-05T12:50:06.408Z,63.8
2017-06-05T13:00:06.406Z,63.8
2017-06-05T13:10:06.411Z,63.2
2017-06-05T13:20:06.411Z,63.8
2017-06-05T13:30:06.402Z,63.8
2017-06-05T13:40:06.379Z,63.8
2017-06-05T13:50:05.866Z,63.8
2017-06-05T14:00:06.413Z,63.8
2017-06-05T14:10:06.455Z,63.8
2017-06-05T14:20:06.410Z,64.3
2017-06-05T14:30:06.402Z,63.8
2017-06-05T14:40:06.417Z,64.3
2017-06-05T14:50:06.413Z,63.8
2017-06-05T15:00:06.407Z,64.3
2017-06-05T15:10:06.478Z,63.8
2017-06-05T15:20:01.157Z,64.3
2017-06-05T15:30:33.704Z,64.3
2017-06-05T15:40:26.435Z,63.8
2017-06-05T15:50:06.406Z,64.3
2017-06-05T16:00:06.622Z,64.3
2017-06-05T16:10:06.404Z,64.3
2017-06-05T16:20:06.402Z,64.3
2017-06-05T16:30:06.412Z,63.8
2017-06-05T16:40:06.403Z,64.3
2017-06-05T16:50:06.592Z,64.3
2017-06-05T17:00:06.852Z,64.3
2017-06-05T17:10:06.402Z,64.8
2017-06-05T17:20:06.378Z,64.3
2017-06-05T17:30:06.409Z,64.3
2017-06-05T17:40:06.380Z,63.8
2017-06-05T17:50:06.405Z,64.3
2017-06-05T18:00:06.401Z,64.3
2017-06-05T18:10:06.423Z,64.3
2017-06-05T18:20:06.398Z,64.3
2017-06-05T18:30:04.163Z,64.3
2017-06-05T18:40:06.414Z,63.8
2017-06-05T18:50:06.403Z,64.8
2017-06-05T19:00:06.382Z,64.3
2017-06-05T19:10:06.405Z,64.3
2017-06-05T19:20:06.408Z,64.3
2017-06-05T19:30:06.479Z,63.8
2017-06-05T19:40:06.380Z,63.8
2017-06-05T19:50:06.399Z,64.3
2017-06-05T20:00:06.431Z,63.8
2017-06-05T20:10:06.401Z,63.8
2017-06-05T20:20:06.453Z,63.8
2017-06-05T20:30:06.481Z,63.8
2017-06-05T20:40:06.406Z,63.8
2017-06-05T20:50:06.405Z,63.8
2017-06-05T21:00:06.412Z,63.8
2017-06-05T21:10:06.430Z,63.8
2017-06-05T21:20:06.417Z,63.8
2017-06-05T21:30:06.405Z,63.8
2017-06-05T21:40:06.384Z,62.7
2017-06-05T21:50:06.412Z,63.8
2017-06-05T22:00:06.368Z,63.2
2017-06-05T22:10:06.499Z,63.8
2017-06-05T22:20:06.382Z,63.2
2017-06-05T22:30:06.419Z,63.8
2017-06-05T22:40:06.419Z,63.2
2017-06-05T22:50:06.414Z,63.2
2017-06-05T23:00:06.442Z,63.2
2017-06-05T23:10:06.402Z,62.7
2017-06-05T23:20:06.405Z,62.7
2017-06-05T23:30:02.483Z,62.7
2017-06-05T23:40:06.371Z,62.7
2017-06-05T23:50:06.628Z,62.7
